Time;durP1;ratioP1;P1;durP2;ratioP2;P2;SDS_P1;SDS_P2;PMS_P1;PMS_P2;Temp;Humidity;BMP_temperature;BMP_pressure;BME280_temperature;BME280_humidity;BME280_pressure;Samples;Min_cycle;Max_cycle;Signal;HPM_P1;HPM_P2
2023/11/19 00:00:47;;;;;;;;;;;14.30;92.00;;;;;;4038413;29;20701;-58
2023/11/19 00:03:34;;;;;;;;;;;14.30;91.70;;;;;;4038799;29;19939;-58
2023/11/19 00:06:16;;;;;;;;;;;14.40;91.90;;;;;;4042808;29;19938;-57
2023/11/19 00:08:58;;;;;;;;;;;14.30;91.90;;;;;;4043121;29;20282;-57
2023/11/19 00:11:40;;;;;;;;;;;14.40;92.10;;;;;;4026150;29;19948;-57
2023/11/19 00:14:21;;;;;;;;;;;14.30;92.20;;;;;;4017997;29;19934;-58
2023/11/19 00:17:03;;;;;;;;;;;14.30;92.20;;;;;;4023466;29;19935;-58
2023/11/19 00:19:44;;;;;;;;;;;14.30;92.30;;;;;;4026314;29;19939;-58
2023/11/19 00:22:27;;;;;;;;;;;14.30;92.30;;;;;;4023724;29;20785;-57
2023/11/19 00:25:10;;;;;;;;;;;14.30;92.40;;;;;;4027792;29;19991;-57
2023/11/19 00:27:53;;;;;;;;;;;14.30;92.80;;;;;;4022954;29;19939;-57
2023/11/19 00:30:34;;;;;;;;;;;14.40;92.40;;;;;;4013749;29;19935;-57
2023/11/19 00:33:14;;;;;;;;;;;14.40;92.50;;;;;;4022273;29;19935;-57
2023/11/19 00:35:55;;;;;;;;;;;14.30;92.90;;;;;;4011610;29;19979;-58
2023/11/19 00:38:36;;;;;;;;;;;14.40;92.60;;;;;;4025762;29;19943;-57
2023/11/19 00:41:19;;;;;;;;;;;14.30;92.60;;;;;;4042531;29;19951;-51
2023/11/19 00:44:00;;;;;;;;;;;14.40;93.10;;;;;;4030833;29;19935;-50
2023/11/19 00:46:41;;;;;;;;;;;14.40;92.80;;;;;;4030642;29;19938;-50
2023/11/19 00:49:22;;;;;;;;;;;14.30;92.80;;;;;;4040618;29;19938;-50
2023/11/19 00:52:03;;;;;;;;;;;14.40;93.30;;;;;;4043604;29;19934;-49
2023/11/19 00:54:44;;;;;;;;;;;14.40;92.90;;;;;;4038606;29;20056;-51
2023/11/19 00:57:27;;;;;;;;;;;14.50;93.00;;;;;;4016783;29;19938;-51
2023/11/19 01:00:17;;;;;;;;;;;14.60;92.80;;;;;;4028917;29;20038;-49
2023/11/19 01:03:00;;;;;;;;;;;14.60;92.70;;;;;;4026213;29;20152;-51
2023/11/19 01:05:40;;;;;;;;;;;14.70;92.60;;;;;;4030982;29;19939;-50
2023/11/19 01:08:21;;;;;;;;;;;14.80;92.50;;;;;;4043088;29;19955;-56
2023/11/19 01:11:02;;;;;;;;;;;14.80;92.90;;;;;;4027803;29;20071;-56
2023/11/19 01:13:45;;;;;;;;;;;14.90;92.40;;;;;;4028494;29;19975;-55
2023/11/19 01:16:27;;;;;;;;;;;14.90;92.40;;;;;;4028008;29;19939;-56
2023/11/19 01:19:07;;;;;;;;;;;14.90;92.30;;;;;;4028537;29;20399;-56
2023/11/19 01:21:52;;;;;;;;;;;14.90;92.30;;;;;;4017166;29;19998;-56
2023/11/19 01:24:33;;;;;;;;;;;14.90;92.30;;;;;;4028578;29;19935;-56
2023/11/19 01:27:14;;;;;;;;;;;15.00;92.40;;;;;;4017392;29;19955;-54
2023/11/19 01:29:57;;;;;;;;;;;15.00;92.40;;;;;;4028757;29;20002;-54
2023/11/19 01:32:38;;;;;;;;;;;15.10;92.20;;;;;;4017027;29;19939;-57
2023/11/19 01:35:19;;;;;;;;;;;15.10;92.20;;;;;;4017189;29;20008;-54
2023/11/19 01:37:59;;;;;;;;;;;15.20;92.00;;;;;;4028325;29;19952;-57
2023/11/19 01:40:40;;;;;;;;;;;15.10;92.00;;;;;;4017647;29;19935;-56
2023/11/19 01:43:34;;;;;;;;;;;15.20;92.00;;;;;;4014355;29;19935;-57
2023/11/19 01:46:16;;;;;;;;;;;15.20;92.00;;;;;;4025860;29;20003;-55
2023/11/19 01:48:57;;;;;;;;;;;15.30;92.00;;;;;;4021021;29;20415;-49
2023/11/19 01:51:39;;;;;;;;;;;15.20;92.00;;;;;;4031828;29;20092;-49
2023/11/19 01:54:19;;;;;;;;;;;15.30;92.10;;;;;;4031327;29;20023;-55
2023/11/19 01:57:00;;;;;;;;;;;15.30;92.10;;;;;;4011312;29;20332;-56
2023/11/19 01:59:41;;;;;;;;;;;15.40;92.10;;;;;;4030673;29;20048;-56
2023/11/19 02:02:24;;;;;;;;;;;15.50;91.80;;;;;;4031900;29;19959;-56
2023/11/19 02:05:05;;;;;;;;;;;15.50;91.60;;;;;;4043504;29;19978;-55
2023/11/19 02:07:46;;;;;;;;;;;15.50;91.40;;;;;;4042961;29;19939;-54
2023/11/19 02:10:27;;;;;;;;;;;15.60;91.40;;;;;;4031504;29;20399;-54
2023/11/19 02:13:08;;;;;;;;;;;15.60;91.40;;;;;;4041524;29;19938;-55
2023/11/19 02:15:48;;;;;;;;;;;15.60;91.40;;;;;;4042564;29;19991;-55
2023/11/19 02:18:30;;;;;;;;;;;15.60;91.80;;;;;;4015996;29;19939;-55
2023/11/19 02:21:11;;;;;;;;;;;15.60;91.40;;;;;;4026654;29;20296;-55
2023/11/19 02:23:52;;;;;;;;;;;15.60;91.50;;;;;;4026862;29;19939;-52
2023/11/19 02:26:36;;;;;;;;;;;15.60;91.60;;;;;;4015934;29;20019;-53
2023/11/19 02:29:18;;;;;;;;;;;15.70;91.60;;;;;;4015222;29;20669;-52
2023/11/19 02:31:58;;;;;;;;;;;15.70;91.60;;;;;;4017173;29;20075;-54
2023/11/19 02:34:40;;;;;;;;;;;15.70;91.40;;;;;;4024919;29;19985;-54
2023/11/19 02:37:20;;;;;;;;;;;15.80;91.50;;;;;;4027170;29;19935;-50
2023/11/19 02:40:09;;;;;;;;;;;15.80;91.30;;;;;;4026944;29;20022;-51
2023/11/19 02:42:50;;;;;;;;;;;15.80;91.30;;;;;;4016071;29;19975;-50
2023/11/19 02:45:32;;;;;;;;;;;15.80;91.20;;;;;;4027635;29;20444;-49
2023/11/19 02:48:14;;;;;;;;;;;15.80;91.50;;;;;;4027351;29;19964;-56
2023/11/19 02:50:54;;;;;;;;;;;15.80;91.00;;;;;;4027018;29;19939;-53
2023/11/19 02:53:35;;;;;;;;;;;15.80;91.10;;;;;;4021333;29;19935;-52
2023/11/19 02:56:25;;;;;;;;;;;15.90;91.10;;;;;;4030330;29;19982;-53
2023/11/19 02:59:15;;;;;;;;;;;15.80;91.00;;;;;;4031295;29;19934;-51
2023/11/19 03:01:59;;;;;;;;;;;15.80;91.10;;;;;;4028493;29;19983;-50
2023/11/19 03:04:40;;;;;;;;;;;15.80;91.10;;;;;;4023602;29;19943;-50
2023/11/19 03:07:21;;;;;;;;;;;15.70;91.20;;;;;;4027466;29;19979;-49
2023/11/19 03:10:05;;;;;;;;;;;15.70;91.30;;;;;;4040042;29;19935;-50
2023/11/19 03:12:46;;;;;;;;;;;15.70;91.40;;;;;;4030950;29;19935;-53
2023/11/19 03:15:27;;;;;;;;;;;15.70;91.40;;;;;;4026844;29;19939;-50
2023/11/19 03:18:09;;;;;;;;;;;15.70;91.30;;;;;;4027034;29;19938;-50
2023/11/19 03:20:50;;;;;;;;;;;15.80;91.20;;;;;;4023562;29;19950;-51
2023/11/19 03:23:31;;;;;;;;;;;15.80;91.30;;;;;;4046155;29;20019;-51
2023/11/19 03:26:13;;;;;;;;;;;15.80;91.30;;;;;;4045860;29;19938;-50
2023/11/19 03:28:54;;;;;;;;;;;15.80;91.30;;;;;;4046073;29;19938;-50
2023/11/19 03:31:34;;;;;;;;;;;15.90;91.20;;;;;;4019209;29;20482;-49
2023/11/19 03:34:17;;;;;;;;;;;15.90;91.20;;;;;;4030545;29;19935;-49
2023/11/19 03:36:58;;;;;;;;;;;15.90;91.10;;;;;;4043176;29;19939;-51
2023/11/19 03:39:39;;;;;;;;;;;15.90;91.10;;;;;;4045973;29;20055;-49
2023/11/19 03:42:20;;;;;;;;;;;15.90;91.50;;;;;;4030732;29;19935;-49
2023/11/19 03:45:01;;;;;;;;;;;16.00;91.20;;;;;;4018955;29;19935;-49
2023/11/19 03:47:42;;;;;;;;;;;16.00;91.10;;;;;;4018245;29;20276;-49
2023/11/19 03:50:24;;;;;;;;;;;16.00;91.10;;;;;;4030081;29;19935;-54
2023/11/19 03:53:05;;;;;;;;;;;16.10;91.00;;;;;;4040119;29;19938;-51
2023/11/19 03:55:46;;;;;;;;;;;16.10;90.90;;;;;;4030152;29;19940;-50
2023/11/19 03:58:27;;;;;;;;;;;16.10;90.80;;;;;;4018204;29;20060;-51
2023/11/19 04:01:11;;;;;;;;;;;16.10;90.80;;;;;;4023858;29;19935;-49
2023/11/19 04:03:52;;;;;;;;;;;16.10;90.70;;;;;;4018310;29;20071;-52
2023/11/19 04:06:35;;;;;;;;;;;16.10;90.80;;;;;;4018378;29;19938;-50
2023/11/19 04:09:16;;;;;;;;;;;16.10;90.70;;;;;;4042859;29;19942;-49
2023/11/19 04:11:56;;;;;;;;;;;16.10;90.70;;;;;;4041722;29;19937;-50
2023/11/19 04:14:37;;;;;;;;;;;16.10;90.70;;;;;;4044960;29;20390;-51
2023/11/19 04:17:18;;;;;;;;;;;16.10;90.70;;;;;;4044541;29;20070;-49
2023/11/19 04:19:59;;;;;;;;;;;16.10;90.70;;;;;;4029305;29;20363;-52
2023/11/19 04:22:41;;;;;;;;;;;16.10;90.80;;;;;;4037465;29;20064;-49
2023/11/19 04:25:22;;;;;;;;;;;16.00;90.80;;;;;;4028015;29;19982;-50
2023/11/19 04:28:04;;;;;;;;;;;16.10;91.00;;;;;;4044090;29;20263;-49
2023/11/19 04:30:45;;;;;;;;;;;16.10;91.00;;;;;;4043524;29;19938;-49
2023/11/19 04:33:26;;;;;;;;;;;16.10;90.90;;;;;;4044330;29;20708;-50
2023/11/19 04:36:07;;;;;;;;;;;16.20;90.80;;;;;;4044398;29;20267;-51
2023/11/19 04:38:49;;;;;;;;;;;16.20;90.70;;;;;;4029653;29;19939;-49
2023/11/19 04:41:32;;;;;;;;;;;16.20;90.70;;;;;;4029538;29;24673;-49
2023/11/19 04:44:13;;;;;;;;;;;16.10;90.80;;;;;;4038508;29;19939;-49
2023/11/19 04:46:53;;;;;;;;;;;16.20;90.90;;;;;;4043828;29;20323;-57
2023/11/19 04:49:34;;;;;;;;;;;16.20;90.80;;;;;;4045248;29;20071;-58
2023/11/19 04:52:15;;;;;;;;;;;16.20;90.70;;;;;;4044434;29;19978;-57
2023/11/19 04:54:57;;;;;;;;;;;16.20;90.60;;;;;;4044507;29;19960;-57
2023/11/19 04:57:38;;;;;;;;;;;16.20;90.50;;;;;;4031831;29;20064;-57
2023/11/19 05:00:19;;;;;;;;;;;16.20;90.60;;;;;;4029242;29;19935;-56
2023/11/19 05:03:00;;;;;;;;;;;16.30;90.60;;;;;;4029022;29;19935;-57
2023/11/19 05:05:41;;;;;;;;;;;16.30;90.90;;;;;;4029467;29;19935;-55
2023/11/19 05:08:21;;;;;;;;;;;16.30;90.40;;;;;;4028689;29;20023;-57
2023/11/19 05:11:05;;;;;;;;;;;16.30;90.40;;;;;;4028966;29;20461;-58
2023/11/19 05:13:46;;;;;;;;;;;16.30;90.40;;;;;;4037758;29;19938;-56
2023/11/19 05:16:27;;;;;;;;;;;16.30;90.30;;;;;;4017631;29;20291;-55
2023/11/19 05:19:08;;;;;;;;;;;16.20;90.40;;;;;;4041853;29;20276;-56
2023/11/19 05:21:52;;;;;;;;;;;16.20;90.40;;;;;;4040980;29;19939;-56
2023/11/19 05:24:32;;;;;;;;;;;16.20;90.50;;;;;;4043906;29;19938;-56
2023/11/19 05:27:14;;;;;;;;;;;16.20;90.60;;;;;;4043656;29;20086;-56
2023/11/19 05:29:55;;;;;;;;;;;16.20;90.60;;;;;;4044250;29;19951;-54
2023/11/19 05:32:36;;;;;;;;;;;16.20;90.60;;;;;;4030805;29;19934;-52
2023/11/19 05:35:16;;;;;;;;;;;16.20;90.50;;;;;;4036442;29;19938;-55
2023/11/19 05:37:58;;;;;;;;;;;16.20;90.80;;;;;;4044007;29;19938;-51
2023/11/19 05:40:39;;;;;;;;;;;16.30;90.40;;;;;;4043570;29;19937;-49
2023/11/19 05:43:21;;;;;;;;;;;16.30;90.40;;;;;;4028545;29;19935;-49
2023/11/19 05:46:02;;;;;;;;;;;16.40;90.30;;;;;;4028295;29;19939;-49
2023/11/19 05:48:43;;;;;;;;;;;16.30;90.30;;;;;;4027981;29;19935;-51
2023/11/19 05:51:23;;;;;;;;;;;16.30;90.20;;;;;;4028247;29;20014;-49
2023/11/19 05:54:06;;;;;;;;;;;16.40;90.20;;;;;;4027988;29;20359;-50
2023/11/19 05:56:49;;;;;;;;;;;16.40;90.20;;;;;;4028181;29;19979;-50
2023/11/19 05:59:32;;;;;;;;;;;16.30;90.20;;;;;;4027766;29;19938;-57
2023/11/19 06:02:13;;;;;;;;;;;16.40;90.70;;;;;;4028558;29;20060;-54
2023/11/19 06:04:54;;;;;;;;;;;16.40;90.30;;;;;;4028365;29;19938;-57
2023/11/19 06:07:35;;;;;;;;;;;16.40;90.20;;;;;;4033613;29;20142;-57
2023/11/19 06:10:16;;;;;;;;;;;16.50;90.10;;;;;;4043746;29;19960;-55
2023/11/19 06:12:59;;;;;;;;;;;16.40;90.10;;;;;;4027703;29;19955;-57
2023/11/19 06:15:41;;;;;;;;;;;16.50;90.00;;;;;;4028300;29;19935;-57
2023/11/19 06:18:23;;;;;;;;;;;16.40;90.00;;;;;;4027896;29;19939;-50
2023/11/19 06:21:04;;;;;;;;;;;16.40;90.10;;;;;;4032646;29;19938;-57
2023/11/19 06:23:44;;;;;;;;;;;16.30;90.20;;;;;;4041244;29;20268;-51
2023/11/19 06:26:25;;;;;;;;;;;16.40;90.60;;;;;;4042524;29;20398;-50
2023/11/19 06:29:06;;;;;;;;;;;16.40;90.10;;;;;;4041371;29;19991;-55
2023/11/19 06:31:48;;;;;;;;;;;16.40;90.00;;;;;;4043620;29;19934;-53
2023/11/19 06:34:29;;;;;;;;;;;16.40;90.00;;;;;;4042685;29;19950;-51
2023/11/19 06:37:10;;;;;;;;;;;16.40;90.00;;;;;;4043170;29;19938;-50
2023/11/19 06:39:51;;;;;;;;;;;16.40;90.10;;;;;;4034520;29;19935;-53
2023/11/19 06:42:32;;;;;;;;;;;16.40;90.40;;;;;;4017421;29;19944;-53
2023/11/19 06:45:12;;;;;;;;;;;16.40;90.00;;;;;;4027469;29;20067;-53
2023/11/19 06:47:55;;;;;;;;;;;16.40;89.90;;;;;;4027642;29;19999;-49
2023/11/19 06:50:36;;;;;;;;;;;16.40;89.80;;;;;;4027007;29;20291;-52
2023/11/19 06:53:17;;;;;;;;;;;16.40;90.00;;;;;;4026882;29;20485;-52
2023/11/19 06:55:57;;;;;;;;;;;16.40;90.20;;;;;;4027751;29;19960;-48
2023/11/19 06:58:39;;;;;;;;;;;16.40;90.20;;;;;;4027549;29;19987;-51
2023/11/19 07:01:20;;;;;;;;;;;16.50;90.20;;;;;;4041200;29;19934;-50
2023/11/19 07:04:07;;;;;;;;;;;16.50;90.00;;;;;;4027148;29;20394;-49
2023/11/19 07:06:49;;;;;;;;;;;16.50;89.90;;;;;;4039214;29;19938;-52
2023/11/19 07:09:30;;;;;;;;;;;16.50;89.70;;;;;;4027784;29;19938;-55
2023/11/19 07:12:10;;;;;;;;;;;16.50;89.70;;;;;;4027390;29;20316;-55
2023/11/19 07:14:51;;;;;;;;;;;16.50;90.30;;;;;;4036809;29;19938;-51
2023/11/19 07:17:32;;;;;;;;;;;16.60;89.80;;;;;;4027340;29;19935;-50
2023/11/19 07:20:15;;;;;;;;;;;16.60;89.60;;;;;;4026099;29;19963;-51
2023/11/19 07:22:56;;;;;;;;;;;16.60;89.40;;;;;;4026696;29;20394;-52
2023/11/19 07:25:38;;;;;;;;;;;16.60;89.40;;;;;;4026885;29;19935;-50
2023/11/19 07:28:19;;;;;;;;;;;16.60;89.30;;;;;;4026918;29;20442;-51
2023/11/19 07:30:59;;;;;;;;;;;16.50;89.40;;;;;;4027073;29;19967;-50
2023/11/19 07:33:42;;;;;;;;;;;16.50;89.50;;;;;;4027104;29;19935;-54
2023/11/19 07:36:24;;;;;;;;;;;16.40;89.60;;;;;;4027633;29;19939;-50
2023/11/19 07:39:05;;;;;;;;;;;16.40;89.70;;;;;;4027724;29;19988;-53
2023/11/19 07:41:46;;;;;;;;;;;16.30;89.90;;;;;;4026969;29;20486;-51
2023/11/19 07:44:27;;;;;;;;;;;16.30;90.00;;;;;;4022731;29;20407;-51
2023/11/19 07:47:08;;;;;;;;;;;16.20;90.50;;;;;;4042674;29;20406;-55
2023/11/19 07:49:49;;;;;;;;;;;16.20;90.20;;;;;;4015550;29;20080;-50
2023/11/19 07:52:31;;;;;;;;;;;16.20;90.10;;;;;;4026695;29;19939;-49
2023/11/19 07:55:13;;;;;;;;;;;16.20;90.40;;;;;;4027184;29;20494;-54
2023/11/19 07:57:53;;;;;;;;;;;16.30;89.80;;;;;;4026975;29;19934;-50
2023/11/19 08:00:34;;;;;;;;;;;16.30;89.60;;;;;;4028073;29;19955;-54
2023/11/19 08:03:14;;;;;;;;;;;16.40;89.30;;;;;;4030559;29;19935;-50
2023/11/19 08:05:56;;;;;;;;;;;16.40;88.70;;;;;;4029170;29;19939;-53
2023/11/19 08:08:38;;;;;;;;;;;16.40;88.50;;;;;;4029670;29;19956;-53
2023/11/19 08:11:20;;;;;;;;;;;16.40;88.20;;;;;;4029961;29;20485;-53
2023/11/19 08:14:01;;;;;;;;;;;16.50;88.20;;;;;;4037281;29;19938;-54
2023/11/19 08:16:41;;;;;;;;;;;16.40;88.60;;;;;;4044035;29;19935;-52
2023/11/19 08:19:22;;;;;;;;;;;16.40;87.60;;;;;;4042345;29;20394;-51
2023/11/19 08:22:03;;;;;;;;;;;16.40;87.50;;;;;;4044664;29;19998;-50
2023/11/19 08:24:45;;;;;;;;;;;16.40;87.50;;;;;;4043611;29;19979;-49
2023/11/19 08:27:27;;;;;;;;;;;16.40;87.60;;;;;;4044750;29;20057;-50
2023/11/19 08:30:08;;;;;;;;;;;16.40;87.40;;;;;;4040005;29;19934;-49
2023/11/19 08:32:48;;;;;;;;;;;16.50;87.20;;;;;;4040582;29;19935;-49
2023/11/19 08:35:29;;;;;;;;;;;16.50;87.00;;;;;;4027475;29;19935;-50
2023/11/19 08:38:10;;;;;;;;;;;16.40;86.90;;;;;;4041981;29;19938;-51
2023/11/19 08:40:53;;;;;;;;;;;16.50;86.90;;;;;;4049028;29;19938;-51
2023/11/19 08:43:33;;;;;;;;;;;16.40;87.00;;;;;;4037185;29;20327;-49
2023/11/19 08:46:14;;;;;;;;;;;16.40;87.10;;;;;;4057583;29;19938;-55
2023/11/19 08:48:56;;;;;;;;;;;16.30;87.20;;;;;;4042851;29;19934;-52
2023/11/19 08:51:37;;;;;;;;;;;16.30;87.40;;;;;;4029618;29;19934;-53
2023/11/19 08:54:17;;;;;;;;;;;16.20;87.50;;;;;;4029535;29;19960;-53
2023/11/19 08:57:00;;;;;;;;;;;16.20;87.60;;;;;;4036648;29;20390;-55
2023/11/19 08:59:41;;;;;;;;;;;16.10;87.80;;;;;;4032989;29;19934;-52
2023/11/19 09:02:22;;;;;;;;;;;16.10;87.80;;;;;;4030182;29;20054;-52
2023/11/19 09:05:02;;;;;;;;;;;16.00;87.90;;;;;;4029286;29;19935;-52
2023/11/19 09:07:43;;;;;;;;;;;16.00;88.10;;;;;;4029177;29;19935;-52
2023/11/19 09:10:24;;;;;;;;;;;16.00;88.20;;;;;;4028784;29;20050;-52
2023/11/19 09:13:06;;;;;;;;;;;15.90;88.40;;;;;;4043601;29;19934;-49
2023/11/19 09:15:47;;;;;;;;;;;15.90;88.60;;;;;;4043689;29;20458;-53
2023/11/19 09:18:27;;;;;;;;;;;15.80;88.70;;;;;;4044396;29;20390;-49
2023/11/19 09:21:08;;;;;;;;;;;15.80;88.90;;;;;;4032812;29;19938;-50
2023/11/19 09:23:49;;;;;;;;;;;15.80;89.00;;;;;;4030710;29;19942;-53
2023/11/19 09:26:30;;;;;;;;;;;15.80;89.20;;;;;;4028712;29;19934;-49
2023/11/19 09:29:14;;;;;;;;;;;15.70;89.40;;;;;;4028884;29;19935;-49
2023/11/19 09:31:55;;;;;;;;;;;15.70;89.60;;;;;;4032694;29;19939;-50
2023/11/19 09:34:35;;;;;;;;;;;15.70;89.70;;;;;;4043668;29;19939;-53
2023/11/19 09:37:16;;;;;;;;;;;15.60;89.90;;;;;;4032392;29;19994;-51
2023/11/19 09:40:00;;;;;;;;;;;15.70;90.00;;;;;;4043206;29;19939;-52
2023/11/19 09:42:44;;;;;;;;;;;15.70;90.20;;;;;;4033093;29;19998;-52
2023/11/19 09:45:28;;;;;;;;;;;15.80;90.30;;;;;;4016515;29;19998;-53
2023/11/19 09:48:09;;;;;;;;;;;16.10;90.00;;;;;;4027801;29;19939;-55
2023/11/19 09:50:51;;;;;;;;;;;16.50;89.50;;;;;;4027866;29;19995;-53
2023/11/19 09:53:32;;;;;;;;;;;16.90;87.20;;;;;;4028452;29;20296;-54
2023/11/19 09:56:13;;;;;;;;;;;17.20;85.70;;;;;;4028003;29;19939;-53
2023/11/19 09:58:55;;;;;;;;;;;17.60;84.30;;;;;;4028351;29;20060;-54
2023/11/19 10:01:39;;;;;;;;;;;17.90;82.90;;;;;;4028100;29;19949;-55
2023/11/19 10:04:20;;;;;;;;;;;18.20;81.60;;;;;;4027367;29;19953;-54
2023/11/19 10:07:01;;;;;;;;;;;18.50;80.40;;;;;;4027761;29;19983;-53
2023/11/19 10:09:41;;;;;;;;;;;18.70;79.30;;;;;;4028327;29;19935;-53
2023/11/19 10:12:22;;;;;;;;;;;18.80;78.60;;;;;;4028214;29;19938;-54
2023/11/19 10:15:03;;;;;;;;;;;18.80;78.20;;;;;;4016428;29;20009;-52
2023/11/19 10:17:45;;;;;;;;;;;18.80;78.20;;;;;;4027687;29;19935;-55
2023/11/19 10:20:26;;;;;;;;;;;18.70;78.20;;;;;;4027646;29;19935;-54
2023/11/19 10:23:07;;;;;;;;;;;18.80;78.10;;;;;;4028231;29;20079;-53
2023/11/19 10:25:48;;;;;;;;;;;18.80;77.80;;;;;;4027599;29;19934;-54
2023/11/19 10:28:39;;;;;;;;;;;18.80;77.80;;;;;;4015885;29;20379;-50
2023/11/19 10:31:24;;;;;;;;;;;18.80;77.90;;;;;;4038737;29;19942;-55
2023/11/19 10:34:24;;;;;;;;;;;18.80;77.70;;;;;;4043129;29;20018;-51
2023/11/19 10:37:05;;;;;;;;;;;18.80;77.50;;;;;;4041434;29;20287;-55
2023/11/19 10:39:54;;;;;;;;;;;18.80;78.20;;;;;;4041968;29;19939;-56
2023/11/19 10:42:34;;;;;;;;;;;18.70;77.50;;;;;;4042909;29;20311;-52
2023/11/19 10:45:33;;;;;;;;;;;18.60;77.80;;;;;;4042740;29;19934;-53
2023/11/19 10:48:14;;;;;;;;;;;18.50;78.20;;;;;;4027114;29;19935;-53
2023/11/19 10:50:56;;;;;;;;;;;18.40;78.40;;;;;;4027520;29;20395;-54
2023/11/19 10:53:38;;;;;;;;;;;18.40;79.40;;;;;;4027114;29;19935;-55
2023/11/19 10:56:21;;;;;;;;;;;18.40;78.50;;;;;;4026791;29;19935;-55
2023/11/19 10:59:03;;;;;;;;;;;18.40;78.40;;;;;;4024627;29;19966;-54
2023/11/19 11:01:45;;;;;;;;;;;18.50;78.30;;;;;;4027225;29;19938;-51
2023/11/19 11:04:27;;;;;;;;;;;18.50;78.20;;;;;;4027545;29;19938;-50
2023/11/19 11:07:10;;;;;;;;;;;18.40;79.10;;;;;;4027423;29;20077;-51
2023/11/19 11:09:52;;;;;;;;;;;18.40;78.60;;;;;;4026935;29;19939;-50
2023/11/19 11:12:36;;;;;;;;;;;18.40;79.00;;;;;;4027708;29;20379;-51
2023/11/19 11:15:18;;;;;;;;;;;18.40;79.30;;;;;;4027612;29;19984;-50
2023/11/19 11:18:02;;;;;;;;;;;18.40;79.50;;;;;;4027422;29;19939;-52
2023/11/19 11:20:45;;;;;;;;;;;18.50;80.20;;;;;;4022304;29;20323;-51
2023/11/19 11:23:43;;;;;;;;;;;18.60;79.30;;;;;;4027334;29;19939;-51
2023/11/19 11:26:42;;;;;;;;;;;18.60;79.00;;;;;;4039013;29;20077;-50
2023/11/19 11:29:29;;;;;;;;;;;18.70;79.40;;;;;;4041503;29;19935;-51
2023/11/19 11:32:22;;;;;;;;;;;18.70;78.80;;;;;;4036313;29;20395;-50
2023/11/19 11:35:13;;;;;;;;;;;18.80;78.30;;;;;;4026436;29;19939;-49
2023/11/19 11:37:56;;;;;;;;;;;18.80;78.40;;;;;;4041706;29;19938;-52
2023/11/19 11:40:37;;;;;;;;;;;18.80;78.90;;;;;;4028670;29;19935;-49
2023/11/19 11:43:36;;;;;;;;;;;18.80;78.70;;;;;;4030545;29;20379;-50
2023/11/19 11:46:36;;;;;;;;;;;18.80;79.10;;;;;;4028759;29;19987;-49
2023/11/19 11:49:25;;;;;;;;;;;18.90;79.10;;;;;;4028515;29;20403;-54
2023/11/19 11:52:06;;;;;;;;;;;18.90;79.00;;;;;;4029055;29;19934;-54
2023/11/19 11:54:47;;;;;;;;;;;19.00;79.00;;;;;;4030118;29;20352;-51
2023/11/19 11:57:37;;;;;;;;;;;18.90;79.00;;;;;;4029728;29;20431;-51
2023/11/19 12:00:22;;;;;;;;;;;18.90;79.10;;;;;;4029814;29;20299;-52
2023/11/19 12:03:03;;;;;;;;;;;18.80;79.50;;;;;;4038673;29;19934;-51
2023/11/19 12:05:46;;;;;;;;;;;18.80;80.40;;;;;;4039844;29;19939;-52
2023/11/19 12:08:29;;;;;;;;;;;18.80;79.60;;;;;;4028973;29;19939;-50
2023/11/19 12:11:11;;;;;;;;;;;18.80;79.80;;;;;;4032198;29;20418;-52
2023/11/19 12:14:02;;;;;;;;;;;18.80;79.90;;;;;;4044656;29;19962;-54
2023/11/19 12:16:43;;;;;;;;;;;18.80;79.90;;;;;;4045453;29;19942;-54
2023/11/19 12:19:23;;;;;;;;;;;18.70;80.00;;;;;;4044936;29;19939;-54
2023/11/19 12:22:11;;;;;;;;;;;18.60;80.40;;;;;;4045212;29;20070;-53
2023/11/19 12:24:52;;;;;;;;;;;18.60;80.70;;;;;;4041982;29;20271;-52
2023/11/19 12:27:33;;;;;;;;;;;18.60;80.90;;;;;;4044405;29;20064;-53
2023/11/19 12:30:18;;;;;;;;;;;18.50;80.70;;;;;;4044582;29;19982;-50
2023/11/19 12:32:59;;;;;;;;;;;18.50;81.00;;;;;;4044045;29;20043;-54
2023/11/19 12:35:40;;;;;;;;;;;18.50;81.40;;;;;;4044039;29;19938;-50
2023/11/19 12:38:22;;;;;;;;;;;18.50;81.70;;;;;;4042351;29;20064;-55
2023/11/19 12:41:03;;;;;;;;;;;18.40;81.70;;;;;;4029122;29;19939;-52
2023/11/19 12:43:44;;;;;;;;;;;18.40;82.80;;;;;;4022184;29;19939;-52
2023/11/19 12:46:28;;;;;;;;;;;18.40;82.20;;;;;;4028783;29;20023;-54
2023/11/19 12:49:12;;;;;;;;;;;18.30;82.40;;;;;;4032646;29;19935;-55
2023/11/19 12:51:53;;;;;;;;;;;18.30;82.70;;;;;;4027206;29;20387;-55
2023/11/19 12:54:36;;;;;;;;;;;18.30;82.70;;;;;;4038153;29;19991;-56
2023/11/19 12:57:18;;;;;;;;;;;18.30;82.80;;;;;;4044993;29;20092;-55
2023/11/19 12:59:59;;;;;;;;;;;18.30;83.00;;;;;;4044598;29;20465;-52
2023/11/19 13:02:45;;;;;;;;;;;18.20;83.20;;;;;;4037422;29;20076;-54
2023/11/19 13:05:27;;;;;;;;;;;18.20;84.10;;;;;;4029128;29;19938;-55
2023/11/19 13:08:09;;;;;;;;;;;18.20;83.50;;;;;;4032115;29;19953;-50
2023/11/19 13:10:54;;;;;;;;;;;18.10;83.40;;;;;;4029161;29;19959;-53
2023/11/19 13:13:50;;;;;;;;;;;18.20;83.10;;;;;;4027533;29;19934;-52
2023/11/19 13:16:32;;;;;;;;;;;18.20;82.80;;;;;;4028102;29;20306;-53
2023/11/19 13:19:13;;;;;;;;;;;18.10;82.10;;;;;;4028543;29;20297;-51
2023/11/19 13:21:53;;;;;;;;;;;18.20;82.20;;;;;;4033951;29;19939;-51
2023/11/19 13:24:34;;;;;;;;;;;18.20;82.00;;;;;;4028600;29;19939;-50
2023/11/19 13:27:16;;;;;;;;;;;18.30;82.40;;;;;;4028101;29;20486;-54
2023/11/19 13:29:56;;;;;;;;;;;18.20;81.50;;;;;;4028157;29;19935;-58
2023/11/19 13:32:37;;;;;;;;;;;18.20;81.90;;;;;;4033996;29;19937;-54
2023/11/19 13:35:19;;;;;;;;;;;18.30;82.80;;;;;;4044128;29;19954;-50
2023/11/19 13:37:59;;;;;;;;;;;18.40;81.20;;;;;;4043400;29;19967;-51
2023/11/19 13:40:40;;;;;;;;;;;18.40;81.40;;;;;;4043275;29;20344;-58
2023/11/19 13:43:22;;;;;;;;;;;18.40;82.50;;;;;;4036236;29;20014;-54
2023/11/19 13:46:05;;;;;;;;;;;18.40;81.80;;;;;;4028414;29;19939;-58
2023/11/19 13:48:45;;;;;;;;;;;18.30;82.20;;;;;;4016542;29;20019;-55
2023/11/19 13:51:27;;;;;;;;;;;18.20;82.20;;;;;;4028163;29;19935;-57
2023/11/19 13:54:07;;;;;;;;;;;18.20;82.60;;;;;;4040127;29;19935;-59
2023/11/19 13:56:48;;;;;;;;;;;18.20;82.50;;;;;;4043433;29;19938;-51
2023/11/19 13:59:31;;;;;;;;;;;18.20;82.80;;;;;;4043417;29;19934;-51
2023/11/19 14:02:11;;;;;;;;;;;18.30;82.70;;;;;;4042173;29;19938;-52
2023/11/19 14:04:51;;;;;;;;;;;18.30;81.90;;;;;;4027882;29;19979;-54
2023/11/19 14:07:32;;;;;;;;;;;18.40;81.10;;;;;;4027648;29;19939;-54
2023/11/19 14:10:13;;;;;;;;;;;18.50;80.50;;;;;;4028213;29;20411;-56
2023/11/19 14:12:54;;;;;;;;;;;18.50;80.30;;;;;;4035917;29;20295;-49
2023/11/19 14:15:36;;;;;;;;;;;18.60;80.20;;;;;;4042340;29;19937;-57
2023/11/19 14:18:17;;;;;;;;;;;18.60;81.20;;;;;;4031250;29;19935;-58
2023/11/19 14:20:59;;;;;;;;;;;18.60;80.00;;;;;;4043366;29;19938;-57
2023/11/19 14:23:40;;;;;;;;;;;18.70;79.30;;;;;;4042149;29;19938;-57
2023/11/19 14:26:21;;;;;;;;;;;18.70;79.70;;;;;;4027761;29;19938;-57
2023/11/19 14:29:02;;;;;;;;;;;18.70;79.40;;;;;;4034837;29;19934;-56
2023/11/19 14:31:43;;;;;;;;;;;18.70;79.30;;;;;;4034159;29;20416;-57
2023/11/19 14:34:26;;;;;;;;;;;18.70;79.50;;;;;;4032166;29;20019;-54
2023/11/19 14:37:06;;;;;;;;;;;18.70;79.80;;;;;;4037069;29;19953;-51
2023/11/19 14:39:47;;;;;;;;;;;18.70;79.70;;;;;;4037689;29;20114;-55
2023/11/19 14:42:29;;;;;;;;;;;18.60;80.00;;;;;;4034361;29;20002;-48
2023/11/19 14:45:11;;;;;;;;;;;18.50;80.20;;;;;;4042708;29;19934;-54
2023/11/19 14:47:54;;;;;;;;;;;18.40;79.80;;;;;;4043099;29;20014;-54
2023/11/19 14:50:35;;;;;;;;;;;18.40;79.90;;;;;;4042863;29;20055;-54
2023/11/19 14:53:16;;;;;;;;;;;18.40;79.90;;;;;;4042932;29;19970;-51
2023/11/19 14:55:56;;;;;;;;;;;18.40;79.60;;;;;;4042784;29;20575;-51
2023/11/19 14:58:37;;;;;;;;;;;18.40;79.30;;;;;;4026657;29;19935;-50
2023/11/19 15:01:18;;;;;;;;;;;18.40;79.50;;;;;;4029836;29;19942;-55
2023/11/19 15:04:00;;;;;;;;;;;18.40;79.50;;;;;;4040101;29;19943;-53
2023/11/19 15:06:43;;;;;;;;;;;18.50;79.00;;;;;;4039915;29;20299;-53
2023/11/19 15:09:24;;;;;;;;;;;18.60;78.60;;;;;;4027566;29;19935;-55
2023/11/19 15:12:05;;;;;;;;;;;18.60;78.10;;;;;;4037786;29;19974;-52
2023/11/19 15:14:46;;;;;;;;;;;18.60;77.70;;;;;;4023725;29;19935;-56
2023/11/19 15:17:27;;;;;;;;;;;18.60;77.70;;;;;;4028184;29;19938;-54
2023/11/19 15:20:13;;;;;;;;;;;18.60;77.80;;;;;;4027501;29;20303;-54
2023/11/19 15:22:55;;;;;;;;;;;18.60;78.20;;;;;;4016206;29;20399;-58
2023/11/19 15:25:36;;;;;;;;;;;18.60;79.00;;;;;;4040187;29;19954;-61
2023/11/19 15:28:17;;;;;;;;;;;18.60;79.80;;;;;;4042030;29;19938;-64
2023/11/19 15:30:58;;;;;;;;;;;18.60;80.30;;;;;;4042668;29;19988;-63
2023/11/19 15:33:38;;;;;;;;;;;18.60;81.00;;;;;;4042090;29;19934;-62
2023/11/19 15:36:20;;;;;;;;;;;18.60;81.80;;;;;;4031184;29;19939;-59
2023/11/19 15:39:02;;;;;;;;;;;18.60;82.40;;;;;;4033411;29;19934;-61
2023/11/19 15:41:43;;;;;;;;;;;18.50;82.80;;;;;;4027672;29;19950;-50